Time;durP1;ratioP1;P1;durP2;ratioP2;P2;SDS_P1;SDS_P2;PMS_P1;PMS_P2;Temp;Humidity;BMP_temperature;BMP_pressure;BME280_temperature;BME280_humidity;BME280_pressure;Samples;Min_cycle;Max_cycle;Signal;HPM_P1;HPM_P2
2023/11/21 00:02:37;;;;;;;0.22;0.22;;;9.10;99.90;;;;;;4427707;32;20041;-62
2023/11/21 00:05:03;;;;;;;2.15;1.25;;;9.10;99.90;;;;;;4428414;32;20152;-60
2023/11/21 00:07:28;;;;;;;0.30;0.30;;;9.10;99.90;;;;;;4429236;32;20058;-61
2023/11/21 00:09:55;;;;;;;0.40;0.40;;;9.10;99.90;;;;;;4428305;32;20053;-61
2023/11/21 00:12:21;;;;;;;0.20;0.20;;;9.10;99.90;;;;;;4430202;32;20473;-60
2023/11/21 00:14:46;;;;;;;0.30;0.30;;;9.20;99.90;;;;;;4430569;32;20061;-61
2023/11/21 00:17:12;;;;;;;0.20;0.20;;;9.10;99.90;;;;;;4431643;32;20045;-61
2023/11/21 00:19:37;;;;;;;0.30;0.30;;;9.10;99.90;;;;;;4426727;32;20064;-61
2023/11/21 00:22:03;;;;;;;1.98;0.60;;;9.00;99.90;;;;;;4431421;32;20080;-60
2023/11/21 00:24:28;;;;;;;0.20;0.20;;;9.00;99.90;;;;;;4431099;32;20533;-62
2023/11/21 00:26:54;;;;;;;0.80;0.80;;;9.00;99.90;;;;;;4428601;32;20085;-61
2023/11/21 00:29:19;;;;;;;1.37;0.68;;;8.90;99.90;;;;;;4425016;32;20077;-61
2023/11/21 00:31:45;;;;;;;0.30;0.30;;;8.80;99.90;;;;;;4422484;32;20514;-62
2023/11/21 00:34:12;;;;;;;0.40;0.40;;;8.70;99.90;;;;;;4423943;32;20117;-62
2023/11/21 00:36:38;;;;;;;0.80;0.50;;;8.60;99.90;;;;;;4428132;32;20077;-61
2023/11/21 00:39:05;;;;;;;0.30;0.30;;;8.60;99.90;;;;;;4429397;32;20109;-62
2023/11/21 00:41:31;;;;;;;0.57;0.57;;;8.60;99.90;;;;;;4428436;32;20147;-62
2023/11/21 00:43:57;;;;;;;0.40;0.40;;;8.60;99.90;;;;;;4431431;32;20081;-61
2023/11/21 00:46:24;;;;;;;0.35;0.35;;;8.40;99.90;;;;;;4429781;32;20058;-62
2023/11/21 00:48:49;;;;;;;0.52;0.52;;;8.40;99.90;;;;;;4431201;32;20070;-62
2023/11/21 00:51:14;;;;;;;0.50;0.50;;;8.40;99.90;;;;;;4431610;32;20563;-61
2023/11/21 00:53:40;;;;;;;0.50;0.50;;;8.40;99.90;;;;;;4433464;32;20066;-62
2023/11/21 00:56:06;;;;;;;0.43;0.43;;;8.30;99.90;;;;;;4430881;32;20529;-58
2023/11/21 00:58:32;;;;;;;14.13;2.12;;;8.30;99.90;;;;;;4432077;32;20074;-61
2023/11/21 01:00:57;;;;;;;0.82;0.82;;;8.30;99.90;;;;;;4430980;32;20084;-60
2023/11/21 01:03:23;;;;;;;0.30;0.30;;;8.30;99.90;;;;;;4429947;32;20081;-59
2023/11/21 01:05:50;;;;;;;0.57;0.57;;;8.20;99.90;;;;;;4430897;32;20430;-62
2023/11/21 01:08:15;;;;;;;0.43;0.43;;;8.20;99.90;;;;;;4429485;32;20077;-60
2023/11/21 01:10:41;;;;;;;0.37;0.37;;;8.10;99.90;;;;;;4432804;32;20053;-61
2023/11/21 01:13:07;;;;;;;0.40;0.40;;;8.10;99.90;;;;;;4427779;32;20069;-61
2023/11/21 01:15:33;;;;;;;0.90;0.90;;;8.00;99.90;;;;;;4430231;32;20143;-61
2023/11/21 01:17:58;;;;;;;0.55;0.50;;;8.00;99.90;;;;;;4431028;32;20089;-60
2023/11/21 01:20:24;;;;;;;1.60;1.23;;;8.00;99.90;;;;;;4428353;32;20078;-60
2023/11/21 01:22:49;;;;;;;2.80;1.70;;;7.90;99.90;;;;;;4430273;32;20078;-59
2023/11/21 01:25:16;;;;;;;0.85;0.85;;;7.90;99.90;;;;;;4428618;32;20057;-61
2023/11/21 01:27:42;;;;;;;2.00;1.17;;;7.80;99.90;;;;;;4426618;32;20077;-60
2023/11/21 01:30:10;;;;;;;3.35;1.05;;;7.80;99.90;;;;;;4431010;32;20175;-60
2023/11/21 01:32:36;;;;;;;0.77;0.73;;;7.80;99.90;;;;;;4428554;32;20143;-61
2023/11/21 01:35:02;;;;;;;0.50;0.50;;;7.70;99.90;;;;;;4429769;32;20082;-61
2023/11/21 01:37:27;;;;;;;0.57;0.57;;;7.70;99.90;;;;;;4429139;32;20066;-61
2023/11/21 01:39:54;;;;;;;3.20;0.73;;;7.70;99.90;;;;;;4429212;32;20386;-61
2023/11/21 01:42:21;;;;;;;0.98;0.60;;;7.70;99.90;;;;;;4426925;32;20550;-60
2023/11/21 01:44:46;;;;;;;3.58;0.75;;;7.60;99.90;;;;;;4431326;32;20057;-61
2023/11/21 01:47:13;;;;;;;25.50;0.77;;;7.70;99.90;;;;;;4431802;32;20774;-61
2023/11/21 01:49:38;;;;;;;1.33;1.25;;;7.70;99.90;;;;;;4428296;32;20517;-61
2023/11/21 01:52:04;;;;;;;6.32;2.33;;;7.70;99.90;;;;;;4430873;32;20077;-61
2023/11/21 01:54:31;;;;;;;1.35;1.05;;;7.60;99.90;;;;;;4431007;32;20077;-59
2023/11/21 01:57:02;;;;;;;4.00;1.20;;;7.70;99.90;;;;;;4428082;32;20494;-59
2023/11/21 01:59:32;;;;;;;2.75;2.08;;;7.60;99.90;;;;;;4431113;32;20536;-58
2023/11/21 02:01:57;;;;;;;8.25;1.73;;;7.50;99.90;;;;;;4429922;32;20500;-58
2023/11/21 02:04:23;;;;;;;3.62;1.60;;;7.50;99.90;;;;;;4429942;32;20128;-59
2023/11/21 02:06:50;;;;;;;2.15;1.12;;;7.40;99.90;;;;;;4430058;32;20384;-59
2023/11/21 02:09:17;;;;;;;2.00;1.80;;;7.40;99.90;;;;;;4427542;32;20081;-59
2023/11/21 02:11:43;;;;;;;4.32;2.03;;;7.40;99.90;;;;;;4429027;32;20062;-60
2023/11/21 02:14:09;;;;;;;7.00;2.15;;;7.40;99.90;;;;;;4429091;32;20065;-60
2023/11/21 02:16:35;;;;;;;3.03;1.05;;;7.40;99.90;;;;;;4431795;32;20094;-58
2023/11/21 02:19:03;;;;;;;8.35;2.10;;;7.40;99.90;;;;;;4433069;32;20057;-59
2023/11/21 02:21:30;;;;;;;3.37;1.60;;;7.30;99.90;;;;;;4430067;32;20082;-59
2023/11/21 02:23:55;;;;;;;1.00;0.62;;;7.30;99.90;;;;;;4428430;32;20078;-57
2023/11/21 02:26:21;;;;;;;1.90;1.30;;;7.30;99.90;;;;;;4431181;32;20077;-59
2023/11/21 02:28:46;;;;;;;2.50;0.65;;;7.30;99.90;;;;;;4434007;32;20082;-59
2023/11/21 02:31:12;;;;;;;4.07;1.50;;;7.40;99.90;;;;;;4425956;32;21022;-60
2023/11/21 02:33:37;;;;;;;1.75;0.90;;;7.30;99.90;;;;;;4426451;32;20226;-58
2023/11/21 02:36:03;;;;;;;2.05;1.17;;;7.20;99.90;;;;;;4431216;32;20081;-58
2023/11/21 02:38:29;;;;;;;0.82;0.77;;;7.20;99.90;;;;;;4426506;32;20069;-60
2023/11/21 02:40:55;;;;;;;1.40;1.30;;;7.20;99.90;;;;;;4427936;32;20069;-60
2023/11/21 02:43:20;;;;;;;1.42;1.35;;;7.20;99.90;;;;;;4429007;32;20141;-59
2023/11/21 02:45:46;;;;;;;1.25;0.88;;;7.20;99.90;;;;;;4428793;32;20132;-59
2023/11/21 02:48:11;;;;;;;5.85;0.45;;;7.20;99.90;;;;;;4430426;32;20073;-59
2023/11/21 02:50:37;;;;;;;1.30;1.15;;;7.20;99.90;;;;;;4428506;32;20081;-60
2023/11/21 02:53:05;;;;;;;1.80;1.40;;;7.20;99.90;;;;;;4427115;32;20077;-58
2023/11/21 02:55:34;;;;;;;0.82;0.82;;;7.20;99.90;;;;;;4431066;32;20561;-58
2023/11/21 02:58:00;;;;;;;3.60;1.35;;;7.10;99.90;;;;;;4429317;32;20089;-59
2023/11/21 03:00:25;;;;;;;1.02;1.02;;;7.10;99.90;;;;;;4428980;32;20695;-59
2023/11/21 03:02:51;;;;;;;1.70;1.25;;;7.00;99.90;;;;;;4429588;32;20073;-59
2023/11/21 03:05:16;;;;;;;0.57;0.57;;;7.10;99.90;;;;;;4427800;32;20549;-59
2023/11/21 03:07:42;;;;;;;0.85;0.85;;;7.20;99.90;;;;;;4429001;32;20085;-60
2023/11/21 03:10:09;;;;;;;0.90;0.43;;;7.10;99.90;;;;;;4431274;32;20526;-61
2023/11/21 03:12:34;;;;;;;0.60;0.60;;;7.00;99.90;;;;;;4427098;32;20112;-60
2023/11/21 03:15:01;;;;;;;0.68;0.50;;;7.00;99.90;;;;;;4431262;32;20448;-60
2023/11/21 03:17:28;;;;;;;0.35;0.32;;;7.10;99.90;;;;;;4431182;32;20084;-60
2023/11/21 03:19:54;;;;;;;0.70;0.65;;;7.00;99.90;;;;;;4428910;32;20081;-59
2023/11/21 03:22:20;;;;;;;1.15;0.88;;;7.00;99.90;;;;;;4430815;32;20616;-61
2023/11/21 03:24:45;;;;;;;0.50;0.50;;;7.00;99.90;;;;;;4430493;32;20542;-59
2023/11/21 03:27:12;;;;;;;1.08;0.40;;;6.90;99.90;;;;;;4428239;32;20073;-59
2023/11/21 03:29:37;;;;;;;0.43;0.43;;;6.90;99.90;;;;;;4428673;32;20102;-60
2023/11/21 03:32:03;;;;;;;0.40;0.40;;;6.90;99.90;;;;;;4426408;32;20077;-59
2023/11/21 03:34:28;;;;;;;0.50;0.50;;;6.90;99.90;;;;;;4427165;32;20424;-61
2023/11/21 03:36:54;;;;;;;0.30;0.30;;;6.90;99.90;;;;;;4426764;32;20450;-61
2023/11/21 03:39:20;;;;;;;0.80;0.80;;;6.90;99.90;;;;;;4413825;32;20537;-60
2023/11/21 03:41:46;;;;;;;0.82;0.70;;;6.80;99.90;;;;;;4427840;32;20274;-60
2023/11/21 03:44:12;;;;;;;0.82;0.55;;;6.80;99.90;;;;;;4427254;32;20081;-60
2023/11/21 03:46:37;;;;;;;0.75;0.75;;;6.90;99.90;;;;;;4427220;32;20073;-61
2023/11/21 03:49:03;;;;;;;1.02;0.90;;;6.90;99.90;;;;;;4430391;32;20060;-60
2023/11/21 03:51:28;;;;;;;0.40;0.40;;;7.00;99.90;;;;;;4427091;32;20073;-60
2023/11/21 03:53:54;;;;;;;1.25;0.50;;;6.90;99.90;;;;;;4426810;32;20601;-61
2023/11/21 03:56:21;;;;;;;0.50;0.50;;;6.90;99.90;;;;;;4427980;32;20060;-60
2023/11/21 03:58:48;;;;;;;0.82;0.82;;;6.90;99.90;;;;;;4427780;32;20624;-60
2023/11/21 04:01:21;;;;;;;0.65;0.55;;;6.90;99.90;;;;;;4427780;32;20066;-61
2023/11/21 04:03:47;;;;;;;0.52;0.52;;;6.90;99.90;;;;;;4426493;32;20168;-59
2023/11/21 04:06:12;;;;;;;0.40;0.40;;;6.90;99.90;;;;;;4428472;32;20080;-60
2023/11/21 04:08:38;;;;;;;3.03;1.05;;;6.90;99.90;;;;;;4425843;32;20061;-61
2023/11/21 04:11:04;;;;;;;0.50;0.50;;;6.90;99.90;;;;;;4426704;32;20156;-60
2023/11/21 04:13:30;;;;;;;0.50;0.50;;;6.90;99.90;;;;;;4425661;32;20081;-59
2023/11/21 04:15:56;;;;;;;0.55;0.45;;;6.90;99.90;;;;;;4426329;32;20360;-59
2023/11/21 04:18:21;;;;;;;0.93;0.70;;;6.80;99.90;;;;;;4426457;32;20127;-59
2023/11/21 04:20:48;;;;;;;3.50;1.05;;;6.70;99.90;;;;;;4428454;32;20070;-59
2023/11/21 04:23:15;;;;;;;0.65;0.52;;;6.70;99.90;;;;;;4427975;32;20077;-58
2023/11/21 04:25:40;;;;;;;0.60;0.60;;;6.70;99.90;;;;;;4431142;32;20131;-59
2023/11/21 04:28:06;;;;;;;0.55;0.37;;;6.70;99.90;;;;;;4426144;32;20070;-59
2023/11/21 04:30:32;;;;;;;0.50;0.50;;;6.70;99.90;;;;;;4426343;32;20180;-58
2023/11/21 04:32:58;;;;;;;1.00;0.90;;;6.70;99.90;;;;;;4428243;32;20082;-59
2023/11/21 04:35:23;;;;;;;1.30;0.50;;;6.60;99.90;;;;;;4427318;32;20073;-59
2023/11/21 04:37:50;;;;;;;0.40;0.40;;;6.60;99.90;;;;;;4427221;32;20081;-59
2023/11/21 04:40:16;;;;;;;0.95;0.73;;;6.60;99.90;;;;;;4425864;32;20069;-59
2023/11/21 04:42:42;;;;;;;0.55;0.55;;;6.60;99.90;;;;;;4430058;32;20069;-59
2023/11/21 04:45:09;;;;;;;2.17;1.23;;;6.60;99.90;;;;;;4427759;32;20094;-59
2023/11/21 04:47:35;;;;;;;0.35;0.35;;;6.60;99.90;;;;;;4428418;32;20621;-60
2023/11/21 04:50:00;;;;;;;1.35;1.10;;;6.70;99.90;;;;;;4427958;32;20120;-58
2023/11/21 04:52:25;;;;;;;0.70;0.70;;;6.60;99.90;;;;;;4428265;32;20073;-58
2023/11/21 04:54:51;;;;;;;0.85;0.85;;;6.70;99.90;;;;;;4429699;32;20677;-59
2023/11/21 04:57:18;;;;;;;0.75;0.75;;;6.60;99.90;;;;;;4430538;32;20058;-60
2023/11/21 04:59:44;;;;;;;0.73;0.73;;;6.60;99.90;;;;;;4427448;32;20061;-59
2023/11/21 05:02:09;;;;;;;1.17;0.95;;;6.60;99.90;;;;;;4428731;32;20449;-60
2023/11/21 05:04:35;;;;;;;7.97;0.95;;;6.60;99.90;;;;;;4430151;32;20068;-59
2023/11/21 05:07:00;;;;;;;0.50;0.50;;;6.60;99.90;;;;;;4428089;32;20073;-59
2023/11/21 05:09:28;;;;;;;0.50;0.50;;;6.60;99.90;;;;;;4427763;32;20061;-60
2023/11/21 05:11:54;;;;;;;0.73;0.73;;;6.50;99.90;;;;;;4425674;32;20057;-60
2023/11/21 05:14:19;;;;;;;1.05;0.70;;;6.50;99.90;;;;;;4428414;32;20072;-60
2023/11/21 05:16:45;;;;;;;0.77;0.70;;;6.60;99.90;;;;;;4426885;32;20147;-59
2023/11/21 05:19:12;;;;;;;0.50;0.50;;;6.60;99.90;;;;;;4428785;32;20559;-60
2023/11/21 05:21:38;;;;;;;0.70;0.70;;;6.60;99.90;;;;;;4426848;32;20517;-60
2023/11/21 05:24:05;;;;;;;0.35;0.35;;;6.50;99.90;;;;;;4429020;32;20057;-58
2023/11/21 05:26:30;;;;;;;0.40;0.40;;;6.50;99.90;;;;;;4428597;32;20105;-59
2023/11/21 05:28:56;;;;;;;0.40;0.40;;;6.50;99.90;;;;;;4428828;32;20762;-59
2023/11/21 05:31:22;;;;;;;0.47;0.47;;;6.50;99.90;;;;;;4429199;32;20147;-60
2023/11/21 05:33:47;;;;;;;0.77;0.73;;;6.50;99.90;;;;;;4429091;32;20089;-60
2023/11/21 05:36:12;;;;;;;0.47;0.47;;;6.50;99.90;;;;;;4431979;32;20081;-58
2023/11/21 05:38:38;;;;;;;0.40;0.40;;;6.50;99.90;;;;;;4429532;32;20422;-61
2023/11/21 05:41:04;;;;;;;0.45;0.45;;;6.50;99.90;;;;;;4430579;32;20078;-59
2023/11/21 05:43:30;;;;;;;0.30;0.30;;;6.50;99.90;;;;;;4429884;32;20164;-59
2023/11/21 05:45:56;;;;;;;0.20;0.20;;;6.60;99.90;;;;;;4429993;32;20561;-61
2023/11/21 05:48:22;;;;;;;1.48;0.95;;;6.60;99.90;;;;;;4431453;32;20062;-59
2023/11/21 05:50:49;;;;;;;0.68;0.68;;;6.50;99.90;;;;;;4428118;32;20132;-60
2023/11/21 05:53:15;;;;;;;1.48;1.37;;;6.50;99.90;;;;;;4428494;32;20077;-59
2023/11/21 05:55:41;;;;;;;0.37;0.37;;;6.50;99.90;;;;;;4431254;32;20089;-60
2023/11/21 05:58:07;;;;;;;0.35;0.35;;;6.50;99.90;;;;;;4426148;32;20073;-60
2023/11/21 06:00:33;;;;;;;0.73;0.73;;;6.50;99.90;;;;;;4428912;32;20466;-59
2023/11/21 06:02:58;;;;;;;0.40;0.40;;;6.50;99.90;;;;;;4427793;32;20081;-58
2023/11/21 06:05:25;;;;;;;1.10;0.77;;;6.60;99.90;;;;;;4426172;32;20383;-61
2023/11/21 06:07:54;;;;;;;0.20;0.20;;;6.50;99.90;;;;;;4417961;32;20069;-60
2023/11/21 06:10:21;;;;;;;0.45;0.43;;;6.60;99.90;;;;;;4428733;32;20136;-58
2023/11/21 06:12:47;;;;;;;0.73;0.73;;;6.60;99.90;;;;;;4423541;32;20116;-61
2023/11/21 06:15:14;;;;;;;1.42;0.52;;;6.50;99.90;;;;;;4416379;32;20108;-59
2023/11/21 06:17:42;;;;;;;0.55;0.55;;;6.50;99.90;;;;;;4427911;32;20077;-61
2023/11/21 06:20:11;;;;;;;0.50;0.50;;;6.40;99.90;;;;;;4425654;32;20061;-59
2023/11/21 06:22:38;;;;;;;0.40;0.40;;;6.40;99.90;;;;;;4416345;32;20352;-60
2023/11/21 06:25:05;;;;;;;4.28;1.15;;;6.50;99.90;;;;;;4426845;32;20074;-61
2023/11/21 06:27:34;;;;;;;0.82;0.70;;;6.40;99.90;;;;;;4399251;32;20632;-60
2023/11/21 06:29:59;;;;;;;0.30;0.30;;;6.30;99.90;;;;;;4423860;32;20069;-59
2023/11/21 06:32:26;;;;;;;0.55;0.55;;;6.30;99.90;;;;;;4423441;32;20093;-59
2023/11/21 06:34:54;;;;;;;0.73;0.73;;;6.30;99.90;;;;;;4423391;32;20443;-58
2023/11/21 06:37:20;;;;;;;0.30;0.30;;;6.30;99.90;;;;;;4421607;32;20077;-60
2023/11/21 06:39:46;;;;;;;0.32;0.32;;;6.40;99.90;;;;;;4425160;32;20054;-60
2023/11/21 06:42:11;;;;;;;0.45;0.45;;;6.40;99.90;;;;;;4424748;32;20184;-60
2023/11/21 06:44:37;;;;;;;0.40;0.40;;;6.50;99.90;;;;;;4423943;32;20082;-60
2023/11/21 06:47:03;;;;;;;0.40;0.40;;;6.50;99.90;;;;;;4420955;32;20588;-60
2023/11/21 06:49:28;;;;;;;0.60;0.60;;;6.40;99.90;;;;;;4415147;32;20088;-59
2023/11/21 06:51:55;;;;;;;0.30;0.30;;;6.30;99.90;;;;;;4408941;32;20101;-60
2023/11/21 06:54:20;;;;;;;0.40;0.40;;;6.30;99.90;;;;;;4410066;32;20076;-59
2023/11/21 06:56:46;;;;;;;0.50;0.50;;;6.30;99.90;;;;;;4406792;32;20097;-58
2023/11/21 06:59:13;;;;;;;0.90;0.70;;;6.30;99.90;;;;;;4397651;32;20544;-59
2023/11/21 07:01:41;;;;;;;0.30;0.30;;;6.20;99.90;;;;;;4391609;32;20097;-59
2023/11/21 07:04:06;;;;;;;1.85;0.60;;;6.30;99.90;;;;;;4403112;32;20199;-62
2023/11/21 07:06:32;;;;;;;0.43;0.43;;;6.30;99.90;;;;;;4399811;32;20710;-62
2023/11/21 07:08:58;;;;;;;0.32;0.32;;;6.30;99.90;;;;;;4401713;32;20774;-60
2023/11/21 07:11:25;;;;;;;0.40;0.40;;;6.30;99.90;;;;;;4396327;32;20112;-61
2023/11/21 07:13:50;;;;;;;0.30;0.30;;;6.40;99.90;;;;;;4402201;32;20105;-62
2023/11/21 07:16:16;;;;;;;0.32;0.32;;;6.40;99.90;;;;;;4406353;32;20081;-60
2023/11/21 07:18:41;;;;;;;0.40;0.40;;;6.30;99.90;;;;;;4399013;32;20166;-58
2023/11/21 07:21:08;;;;;;;0.65;0.52;;;6.30;99.90;;;;;;4405132;32;20389;-59
2023/11/21 07:23:34;;;;;;;0.28;0.28;;;6.30;99.90;;;;;;4412887;32;20128;-60
2023/11/21 07:25:59;;;;;;;1.10;0.80;;;6.40;99.90;;;;;;4410527;32;20309;-61
2023/11/21 07:28:25;;;;;;;0.43;0.43;;;6.30;99.90;;;;;;4404207;32;20105;-59
2023/11/21 07:30:52;;;;;;;0.30;0.30;;;6.30;99.90;;;;;;4409457;32;20085;-57
2023/11/21 07:33:17;;;;;;;0.30;0.30;;;6.20;99.90;;;;;;4408012;32;20228;-59
2023/11/21 07:35:43;;;;;;;0.43;0.43;;;6.20;99.90;;;;;;4401959;32;20097;-61
2023/11/21 07:38:08;;;;;;;0.50;0.50;;;6.20;99.90;;;;;;4402732;32;20200;-61
2023/11/21 07:40:34;;;;;;;0.40;0.40;;;6.30;99.90;;;;;;4410653;32;20076;-61
2023/11/21 07:43:00;;;;;;;0.45;0.45;;;6.40;99.90;;;;;;4411687;32;20062;-59
2023/11/21 07:45:27;;;;;;;0.57;0.57;;;6.30;99.90;;;;;;4410188;32;20482;-60
2023/11/21 07:47:54;;;;;;;0.30;0.30;;;6.30;99.90;;;;;;4402257;32;20079;-60
2023/11/21 07:50:20;;;;;;;0.40;0.40;;;6.30;99.90;;;;;;4409574;32;20258;-61
2023/11/21 07:52:46;;;;;;;0.85;0.62;;;6.30;99.90;;;;;;4408484;32;20097;-61
2023/11/21 07:55:11;;;;;;;0.30;0.30;;;6.30;99.90;;;;;;4413132;32;20085;-61
2023/11/21 07:57:37;;;;;;;0.32;0.32;;;6.20;99.90;;;;;;4396211;32;20677;-59
2023/11/21 08:00:06;;;;;;;0.40;0.40;;;6.20;99.90;;;;;;4407436;32;20143;-61
2023/11/21 08:02:31;;;;;;;0.37;0.37;;;6.20;99.90;;;;;;4407799;32;20163;-62
2023/11/21 08:04:57;;;;;;;0.30;0.30;;;6.20;99.90;;;;;;4402264;32;20492;-60
2023/11/21 08:07:22;;;;;;;0.45;0.45;;;6.20;99.90;;;;;;4406408;32;20081;-60
2023/11/21 08:09:49;;;;;;;0.32;0.32;;;6.10;99.90;;;;;;4408169;32;20085;-61
2023/11/21 08:12:15;;;;;;;0.50;0.50;;;6.10;99.90;;;;;;4406574;32;20081;-63
2023/11/21 08:14:41;;;;;;;0.50;0.50;;;6.10;99.90;;;;;;4412292;32;20073;-62
2023/11/21 08:17:06;;;;;;;0.30;0.30;;;6.10;99.90;;;;;;4411071;32;20437;-61
2023/11/21 08:19:32;;;;;;;0.70;0.70;;;6.10;99.90;;;;;;4406158;32;20835;-61
2023/11/21 08:21:59;;;;;;;0.30;0.30;;;6.10;99.90;;;;;;4405812;32;20093;-61
2023/11/21 08:24:24;;;;;;;1.08;0.70;;;6.10;99.90;;;;;;4405784;32;20096;-61
2023/11/21 08:26:52;;;;;;;0.93;0.60;;;6.10;99.90;;;;;;4407491;32;20618;-58
2023/11/21 08:29:18;;;;;;;0.70;0.50;;;6.10;99.90;;;;;;4405855;32;20349;-60
2023/11/21 08:31:46;;;;;;;0.40;0.40;;;6.10;99.90;;;;;;4402803;32;21797;-61
2023/11/21 08:34:12;;;;;;;0.50;0.50;;;6.20;99.90;;;;;;4402317;32;20396;-61
2023/11/21 08:36:42;;;;;;;0.37;0.37;;;6.10;99.90;;;;;;4414158;32;20086;-62
2023/11/21 08:39:09;;;;;;;0.40;0.40;;;6.10;99.90;;;;;;4420149;32;20069;-60
2023/11/21 08:41:34;;;;;;;0.43;0.43;;;6.10;99.90;;;;;;4413465;32;20167;-59
2023/11/21 08:44:01;;;;;;;0.30;0.30;;;6.10;99.90;;;;;;4410057;32;20630;-61
2023/11/21 08:46:26;;;;;;;1.45;0.65;;;6.10;99.90;;;;;;4402325;32;20072;-58
2023/11/21 08:48:52;;;;;;;0.40;0.40;;;6.00;99.90;;;;;;4386208;32;20866;-62
2023/11/21 08:51:18;;;;;;;0.37;0.37;;;6.00;99.90;;;;;;4374819;32;20514;-61
2023/11/21 08:53:44;;;;;;;0.30;0.30;;;5.90;99.90;;;;;;4384480;32;21563;-60
2023/11/21 08:56:14;;;;;;;0.20;0.20;;;6.00;99.90;;;;;;4392324;32;20090;-60
2023/11/21 08:58:41;;;;;;;;;;;6.00;99.90;;;;;;4389256;32;20198;-58
2023/11/21 09:01:07;;;;;;;0.43;0.43;;;6.10;99.90;;;;;;4387921;32;19972;-61
2023/11/21 09:03:34;;;;;;;0.50;0.50;;;6.10;99.90;;;;;;4397285;32;20101;-61
2023/11/21 09:06:00;;;;;;;4.37;1.02;;;6.00;99.90;;;;;;4399422;32;20866;-61
2023/11/21 09:08:28;;;;;;;0.30;0.30;;;6.00;99.90;;;;;;4387177;32;20406;-61
2023/11/21 09:10:54;;;;;;;0.20;0.20;;;6.10;99.90;;;;;;4389909;32;20117;-60
2023/11/21 09:13:20;;;;;;;0.20;0.20;;;6.00;99.90;;;;;;4387192;32;20410;-63
2023/11/21 09:15:46;;;;;;;0.70;0.70;;;6.10;99.90;;;;;;4385897;32;20089;-62
2023/11/21 09:18:13;;;;;;;0.30;0.30;;;6.10;99.90;;;;;;4394707;32;20125;-63
2023/11/21 09:20:39;;;;;;;0.30;0.30;;;6.10;99.90;;;;;;4401070;32;20188;-62
2023/11/21 09:23:04;;;;;;;0.80;0.80;;;6.10;99.90;;;;;;4399158;32;20713;-63
2023/11/21 09:25:30;;;;;;;0.40;0.40;;;6.10;99.90;;;;;;4398413;32;20065;-63
2023/11/21 09:27:57;;;;;;;0.50;0.50;;;6.10;99.90;;;;;;4397078;32;20104;-63
2023/11/21 09:30:24;;;;;;;0.40;0.40;;;6.20;99.90;;;;;;4402442;32;20105;-64
2023/11/21 09:32:50;;;;;;;0.50;0.50;;;6.20;99.90;;;;;;4396052;32;20566;-62
2023/11/21 09:35:17;;;;;;;0.40;0.40;;;6.20;99.90;;;;;;4398069;32;20525;-63
2023/11/21 09:37:44;;;;;;;0.30;0.30;;;6.10;99.90;;;;;;4403335;32;21032;-64
2023/11/21 09:40:13;;;;;;;0.47;0.37;;;6.10;99.90;;;;;;4389498;32;20093;-62
2023/11/21 09:42:41;;;;;;;0.50;0.50;;;6.00;99.90;;;;;;4401348;32;20752;-62
2023/11/21 09:45:26;;;;;;;0.30;0.30;;;6.10;99.90;;;;;;4383608;32;20093;-62
2023/11/21 09:47:56;;;;;;;0.50;0.50;;;6.10;99.90;;;;;;4396325;32;20560;-62
2023/11/21 09:50:22;;;;;;;0.30;0.30;;;6.20;99.90;;;;;;4401325;32;20187;-61
2023/11/21 09:53:02;;;;;;;0.40;0.40;;;6.20;99.90;;;;;;4404900;32;20099;-63
2023/11/21 09:55:29;;;;;;;0.37;0.37;;;6.20;99.90;;;;;;4404653;32;20092;-62
2023/11/21 09:57:56;;;;;;;0.30;0.30;;;6.20;99.90;;;;;;4409477;32;20485;-63
2023/11/21 10:00:23;;;;;;;0.30;0.30;;;6.20;99.90;;;;;;4399454;32;20077;-62
2023/11/21 10:02:49;;;;;;;0.62;0.62;;;6.20;99.90;;;;;;4402213;32;20105;-62
2023/11/21 10:05:17;;;;;;;0.30;0.30;;;6.20;99.90;;;;;;4403222;32;20081;-62
2023/11/21 10:07:44;;;;;;;1.45;1.00;;;6.30;99.90;;;;;;4407128;32;20560;-63
2023/11/21 10:10:10;;;;;;;1.20;1.02;;;6.30;99.90;;;;;;4406464;32;20080;-63
2023/11/21 10:12:36;;;;;;;0.60;0.60;;;6.10;99.90;;;;;;4405670;32;20590;-63
2023/11/21 10:15:06;;;;;;;0.30;0.30;;;6.00;99.90;;;;;;4387233;32;21252;-62
2023/11/21 10:17:38;;;;;;;0.30;0.30;;;6.00;99.90;;;;;;4396265;32;20138;-63
2023/11/21 10:20:11;;;;;;;0.40;0.40;;;6.00;99.90;;;;;;4392902;32;20509;-63
2023/11/21 10:22:41;;;;;;;0.55;0.55;;;5.90;99.90;;;;;;4388623;32;20662;-64
2023/11/21 10:25:07;;;;;;;0.35;0.35;;;5.90;99.90;;;;;;4380097;32;20422;-63
2023/11/21 10:27:34;;;;;;;0.95;0.93;;;5.90;99.90;;;;;;4385194;32;20223;-63
2023/11/21 10:30:02;;;;;;;0.52;0.52;;;5.90;99.90;;;;;;4387026;32;20097;-62
2023/11/21 10:32:32;;;;;;;0.30;0.30;;;5.90;99.90;;;;;;4383955;32;20521;-61
2023/11/21 10:34:57;;;;;;;0.30;0.30;;;6.00;99.90;;;;;;4386849;32;21325;-61
2023/11/21 10:37:23;;;;;;;2.45;0.93;;;6.10;99.90;;;;;;4385934;32;20108;-61
2023/11/21 10:39:50;;;;;;;1.45;1.17;;;6.10;99.90;;;;;;4385747;32;20098;-63
2023/11/21 10:42:20;;;;;;;0.40;0.40;;;6.00;99.90;;;;;;4392659;32;20552;-63
2023/11/21 10:44:46;;;;;;;0.45;0.45;;;6.00;99.90;;;;;;4388069;32;21490;-64
2023/11/21 10:47:11;;;;;;;1.00;0.60;;;5.90;99.90;;;;;;4365611;32;20837;-60
2023/11/21 10:49:37;;;;;;;2.05;0.47;;;5.90;99.90;;;;;;4393481;32;20526;-61
2023/11/21 10:52:03;;;;;;;0.85;0.85;;;5.80;99.90;;;;;;4389271;32;20073;-62
2023/11/21 10:54:29;;;;;;;0.50;0.50;;;5.80;99.90;;;;;;4395994;32;20134;-61
2023/11/21 10:56:58;;;;;;;0.50;0.50;;;5.80;99.90;;;;;;4397753;32;20081;-62
2023/11/21 10:59:29;;;;;;;0.43;0.43;;;5.70;99.90;;;;;;4391888;32;20081;-61
2023/11/21 11:01:57;;;;;;;0.30;0.30;;;5.80;99.90;;;;;;4373970;32;20085;-60
2023/11/21 11:04:24;;;;;;;1.55;0.55;;;5.80;99.90;;;;;;4379854;32;20089;-62
2023/11/21 11:06:57;;;;;;;0.40;0.40;;;5.80;99.90;;;;;;4393165;32;20131;-62
2023/11/21 11:09:22;;;;;;;1.10;0.85;;;5.70;99.90;;;;;;4379247;32;20117;-62
2023/11/21 11:11:48;;;;;;;0.30;0.30;;;5.80;99.90;;;;;;4386597;32;20085;-61
2023/11/21 11:14:14;;;;;;;0.57;0.52;;;5.80;99.90;;;;;;4391468;32;20120;-61
2023/11/21 11:16:42;;;;;;;3.03;1.30;;;5.80;99.90;;;;;;4383843;32;20088;-63
2023/11/21 11:19:09;;;;;;;0.50;0.50;;;5.70;99.90;;;;;;4376943;32;20356;-62
2023/11/21 11:21:59;;;;;;;0.40;0.40;;;5.70;99.90;;;;;;4402552;32;20089;-61
2023/11/21 11:24:33;;;;;;;0.37;0.37;;;5.70;99.90;;;;;;4385857;32;20840;-63
2023/11/21 11:27:16;;;;;;;0.55;0.45;;;5.70;99.90;;;;;;4400870;32;20101;-62
2023/11/21 11:30:04;;;;;;;0.30;0.30;;;5.70;99.90;;;;;;4402444;32;20861;-61
2023/11/21 11:32:56;;;;;;;0.30;0.30;;;5.70;99.90;;;;;;4408489;32;20117;-60
2023/11/21 11:35:47;;;;;;;0.50;0.50;;;5.50;99.90;;;;;;4408916;32;20355;-62
2023/11/21 11:38:13;;;;;;;1.10;0.40;;;5.60;99.90;;;;;;4382899;32;20717;-60
2023/11/21 11:40:41;;;;;;;0.30;0.30;;;5.50;99.90;;;;;;4407770;32;20613;-62
2023/11/21 11:43:07;;;;;;;2.12;1.17;;;5.50;99.90;;;;;;4395983;32;20788;-61
2023/11/21 11:45:35;;;;;;;0.30;0.30;;;5.50;99.90;;;;;;4389578;32;20263;-63
2023/11/21 11:48:03;;;;;;;0.50;0.50;;;5.50;99.90;;;;;;4408799;32;20068;-63
2023/11/21 11:50:29;;;;;;;0.40;0.40;;;5.40;99.90;;;;;;4401666;32;94179;-62
2023/11/21 11:52:57;;;;;;;0.37;0.37;;;5.50;99.90;;;;;;4402240;32;20061;-61
2023/11/21 11:55:24;;;;;;;0.40;0.37;;;5.50;99.90;;;;;;4392465;32;20933;-61
2023/11/21 11:57:58;;;;;;;0.30;0.30;;;5.50;99.90;;;;;;4396962;32;21158;-60
2023/11/21 12:00:30;;;;;;;0.47;0.47;;;5.50;99.90;;;;;;4395104;32;20583;-61
2023/11/21 12:02:58;;;;;;;0.37;0.37;;;5.60;99.90;;;;;;4407949;32;20096;-62
2023/11/21 12:05:27;;;;;;;0.68;0.68;;;5.60;99.90;;;;;;4402203;32;20561;-60
2023/11/21 12:07:57;;;;;;;0.30;0.30;;;5.60;99.90;;;;;;4398406;32;20104;-59
2023/11/21 12:10:25;;;;;;;0.30;0.30;;;5.50;99.90;;;;;;4396243;32;20112;-60
2023/11/21 12:12:57;;;;;;;0.40;0.40;;;5.50;99.90;;;;;;4404500;32;20072;-60
2023/11/21 12:15:24;;;;;;;0.50;0.50;;;5.40;99.90;;;;;;4397457;32;20569;-62
2023/11/21 12:17:50;;;;;;;0.25;0.25;;;5.40;99.90;;;;;;4407837;32;20089;-60
2023/11/21 12:20:18;;;;;;;0.30;0.30;;;5.40;99.90;;;;;;4411037;32;20061;-60
2023/11/21 12:22:47;;;;;;;0.35;0.35;;;5.40;99.90;;;;;;4393697;32;20081;-64
2023/11/21 12:25:16;;;;;;;0.50;0.50;;;5.40;99.90;;;;;;4402616;32;20077;-63
2023/11/21 12:27:43;;;;;;;0.30;0.30;;;5.40;99.90;;;;;;4396287;32;20459;-62
2023/11/21 12:30:13;;;;;;;0.30;0.30;;;5.40;99.90;;;;;;4408784;32;20167;-60
2023/11/21 12:32:40;;;;;;;0.40;0.40;;;5.40;99.90;;;;;;4405985;32;20517;-61
2023/11/21 12:35:06;;;;;;;0.40;0.40;;;5.30;99.90;;;;;;4404139;32;20109;-60
2023/11/21 12:37:32;;;;;;;0.75;0.45;;;5.30;99.90;;;;;;4396741;32;20591;-61
2023/11/21 12:39:57;;;;;;;0.40;0.40;;;5.50;99.90;;;;;;4392917;32;20951;-59
2023/11/21 12:42:24;;;;;;;0.52;0.52;;;5.50;99.90;;;;;;4392944;32;20073;-60
2023/11/21 12:45:17;;;;;;;0.55;0.55;;;5.40;99.90;;;;;;4396318;32;20061;-61
2023/11/21 12:47:44;;;;;;;0.22;0.22;;;5.50;99.90;;;;;;4400524;32;20088;-59
2023/11/21 12:50:21;;;;;;;0.25;0.25;;;5.50;99.90;;;;;;4395038;32;20135;-61
2023/11/21 12:52:47;;;;;;;0.20;0.20;;;5.40;99.90;;;;;;4395211;32;20164;-61
2023/11/21 12:55:15;;;;;;;0.28;0.28;;;5.30;99.90;;;;;;4386175;32;22705;-61
2023/11/21 12:57:43;;;;;;;0.35;0.35;;;5.30;99.90;;;;;;4395440;32;20108;-61